Time;durP1;ratioP1;P1;durP2;ratioP2;P2;SDS_P1;SDS_P2;PMS_P1;PMS_P2;Temp;Humidity;BMP_temperature;BMP_pressure;BME280_temperature;BME280_humidity;BME280_pressure;Samples;Min_cycle;Max_cycle;Signal;HPM_P1;HPM_P2
2022/08/08 00:00:13;;;;;;;1.98;1.45;;;21.20;44.10;;;;;;4901962;29;20036;-77
2022/08/08 00:03:03;;;;;;;3.53;1.48;;;21.20;44.00;;;;;;4916856;29;20055;-78
2022/08/08 00:05:42;;;;;;;4.25;2.10;;;21.00;44.60;;;;;;4920048;29;20032;-78
2022/08/08 00:08:43;;;;;;;2.05;1.55;;;21.10;44.50;;;;;;4915388;29;20044;-78
2022/08/08 00:11:18;;;;;;;3.10;1.90;;;21.10;44.90;;;;;;4879677;29;20052;-78
2022/08/08 00:14:05;;;;;;;4.40;2.20;;;21.00;45.00;;;;;;4915094;29;20032;-78
2022/08/08 00:16:48;;;;;;;3.55;1.63;;;21.10;44.90;;;;;;4920869;29;20539;-78
2022/08/08 00:19:33;;;;;;;2.90;1.80;;;21.10;45.00;;;;;;4920197;29;20484;-78
2022/08/08 00:22:12;;;;;;;3.55;2.00;;;21.10;44.70;;;;;;4906373;29;20496;-77
2022/08/08 00:24:56;;;;;;;4.95;1.73;;;21.10;44.70;;;;;;4902036;29;20029;-78
2022/08/08 00:27:25;;;;;;;5.78;1.75;;;21.00;44.90;;;;;;4901615;29;20506;-78
2022/08/08 00:30:08;;;;;;;3.88;1.80;;;21.00;44.80;;;;;;4901370;29;20039;-78
2022/08/08 00:32:55;;;;;;;5.13;2.38;;;21.00;45.20;;;;;;4901917;29;20403;-78
2022/08/08 00:36:05;;;;;;;5.10;1.95;;;20.90;45.10;;;;;;4901607;29;20083;-78
2022/08/08 00:38:46;;;;;;;4.28;1.70;;;20.90;45.10;;;;;;4901051;29;20112;-78
2022/08/08 00:41:53;;;;;;;4.05;1.80;;;20.90;45.50;;;;;;4901475;29;20453;-78
2022/08/08 00:44:28;;;;;;;3.22;1.98;;;20.80;45.40;;;;;;4901312;29;20385;-78
2022/08/08 00:47:20;;;;;;;2.83;1.80;;;20.80;45.80;;;;;;4900042;29;20029;-78
2022/08/08 00:50:07;;;;;;;3.08;1.83;;;20.80;45.70;;;;;;4901311;29;20025;-78
2022/08/08 00:52:53;;;;;;;2.60;1.60;;;20.80;45.80;;;;;;4901056;29;20080;-78
2022/08/08 00:55:37;;;;;;;4.93;1.55;;;20.70;46.30;;;;;;4900735;29;20040;-78
2022/08/08 00:58:15;;;;;;;6.63;2.10;;;20.60;46.30;;;;;;4901217;29;20036;-78
2022/08/08 01:01:19;;;;;;;5.68;1.75;;;20.60;46.60;;;;;;4901078;29;20036;-78
2022/08/08 01:04:14;;;;;;;3.85;1.88;;;20.50;46.70;;;;;;4901051;29;20050;-78
2022/08/08 01:06:57;;;;;;;3.90;1.85;;;20.60;46.50;;;;;;4915845;29;20484;-78
2022/08/08 01:10:13;;;;;;;3.65;1.95;;;20.50;46.70;;;;;;4908085;29;20405;-78
2022/08/08 01:13:03;;;;;;;3.28;1.67;;;20.50;46.80;;;;;;4953512;29;20069;-78
2022/08/08 01:15:44;;;;;;;5.28;1.98;;;20.50;46.90;;;;;;4910346;29;20519;-78
2022/08/08 01:18:34;;;;;;;2.97;1.90;;;20.50;46.90;;;;;;4900860;29;20064;-77
2022/08/08 01:21:03;;;;;;;;;;;20.40;47.30;;;;;;4901346;29;20033;-78
2022/08/08 01:23:56;;;;;;;4.32;1.90;;;20.50;46.80;;;;;;4900379;29;19930;-78
2022/08/08 01:26:40;;;;;;;2.78;1.58;;;20.50;46.80;;;;;;4938107;29;20042;-78
2022/08/08 01:29:25;;;;;;;4.07;2.00;;;20.50;46.80;;;;;;4938316;29;20035;-78
2022/08/08 01:32:44;;;;;;;2.83;1.60;;;20.50;47.00;;;;;;4922904;29;20025;-78
2022/08/08 01:35:50;;;;;;;2.22;1.73;;;20.50;46.90;;;;;;4900655;29;20037;-78
2022/08/08 01:38:40;;;;;;;4.28;1.95;;;20.40;46.80;;;;;;4900524;29;20424;-78
2022/08/08 01:41:35;;;;;;;3.90;2.10;;;20.40;47.00;;;;;;4915044;29;20116;-78
2022/08/08 01:44:33;;;;;;;3.90;1.80;;;20.50;46.80;;;;;;4900223;29;20045;-78
2022/08/08 01:47:33;;;;;;;4.55;1.77;;;20.50;46.30;;;;;;4899850;29;20039;-77
2022/08/08 01:50:07;;;;;;;4.25;1.92;;;20.50;46.20;;;;;;4895253;29;20520;-77
2022/08/08 01:53:09;;;;;;;4.32;1.92;;;20.60;46.30;;;;;;4900423;29;20044;-77
2022/08/08 01:55:53;;;;;;;4.75;2.13;;;20.50;46.20;;;;;;4899978;29;20037;-78
2022/08/08 01:58:46;;;;;;;4.25;1.80;;;20.40;46.30;;;;;;4900450;29;20064;-78
2022/08/08 02:01:30;;;;;;;3.78;2.05;;;20.40;46.60;;;;;;4914499;29;20024;-79
2022/08/08 02:04:15;;;;;;;2.72;1.27;;;20.30;46.50;;;;;;4914516;29;20130;-79
2022/08/08 02:06:59;;;;;;;3.20;1.65;;;20.40;46.40;;;;;;4899574;29;20025;-79
2022/08/08 02:10:10;;;;;;;2.83;1.85;;;20.40;46.50;;;;;;4907706;29;20471;-78
2022/08/08 02:13:05;;;;;;;3.30;1.85;;;20.30;46.80;;;;;;4938056;29;20589;-78
2022/08/08 02:15:35;;;;;;;4.13;1.80;;;20.30;46.70;;;;;;4906278;29;20032;-78
2022/08/08 02:18:14;;;;;;;;;;;20.30;46.90;;;;;;4900540;29;20035;-78
2022/08/08 02:24:22;;;;;;;4.22;1.58;;;20.30;46.50;;;;;;4900215;29;20052;-78
2022/08/08 02:26:53;;;;;;;5.28;2.38;;;20.30;46.60;;;;;;4898390;29;20453;-80
2022/08/08 02:29:47;;;;;;;3.70;1.92;;;20.20;46.50;;;;;;4918611;29;20027;-79
2022/08/08 02:32:35;;;;;;;2.47;1.50;;;20.20;47.00;;;;;;4908959;29;20032;-79
2022/08/08 02:35:00;;;;;;;3.28;1.30;;;20.10;47.00;;;;;;4901985;29;20025;-77
2022/08/08 02:37:42;;;;;;;3.00;1.88;;;20.10;47.10;;;;;;4903773;29;20040;-79
2022/08/08 02:40:15;;;;;;;3.05;1.98;;;20.00;46.90;;;;;;4903697;29;20540;-79
2022/08/08 02:43:23;;;;;;;2.60;1.58;;;20.00;47.00;;;;;;4903153;29;20140;-79
2022/08/08 02:46:03;;;;;;;4.57;1.98;;;19.90;47.50;;;;;;4903497;29;20036;-77
2022/08/08 02:48:59;;;;;;;2.88;1.63;;;19.90;47.40;;;;;;4903413;29;20035;-79
2022/08/08 02:51:46;;;;;;;3.03;1.58;;;19.80;47.70;;;;;;4903342;29;20369;-77
2022/08/08 02:54:40;;;;;;;4.75;2.20;;;19.80;47.60;;;;;;4903199;29;20040;-77
2022/08/08 02:57:20;;;;;;;4.00;1.95;;;19.80;47.60;;;;;;4917766;29;20408;-78
2022/08/08 03:00:06;;;;;;;4.88;1.77;;;19.80;47.60;;;;;;4903222;29;20028;-78
2022/08/08 03:03:00;;;;;;;4.65;1.80;;;19.70;47.90;;;;;;4902642;29;20059;-78
2022/08/08 03:05:31;;;;;;;3.10;1.73;;;19.70;47.70;;;;;;4902533;29;20548;-78
2022/08/08 03:08:18;;;;;;;2.58;1.65;;;19.70;47.80;;;;;;4903257;29;20043;-77
2022/08/08 03:11:02;;;;;;;2.88;1.73;;;19.70;47.90;;;;;;4903223;29;20084;-77
2022/08/08 03:13:58;;;;;;;2.75;1.55;;;19.60;48.10;;;;;;4903018;29;20024;-77
2022/08/08 03:16:53;;;;;;;5.13;2.00;;;19.60;48.40;;;;;;4903103;29;20029;-77
2022/08/08 03:19:37;;;;;;;4.00;2.30;;;19.50;48.20;;;;;;4901237;29;20032;-78
2022/08/08 03:22:03;;;;;;;4.30;1.77;;;19.50;48.30;;;;;;4902929;29;20088;-78
2022/08/08 03:24:28;;;;;;;4.22;1.70;;;19.40;48.50;;;;;;4902773;29;20028;-78
2022/08/08 03:27:17;;;;;;;3.03;1.85;;;19.30;48.70;;;;;;4902815;29;20040;-78
2022/08/08 03:29:56;;;;;;;2.85;1.65;;;19.20;49.10;;;;;;4902781;29;20044;-77
2022/08/08 03:35:08;;;;;;;3.65;2.20;;;19.10;49.40;;;;;;4903094;29;20083;-77
2022/08/08 03:37:34;;;;;;;2.75;1.88;;;19.10;49.40;;;;;;4902164;29;20465;-77
2022/08/08 03:40:01;;;;;;;5.53;2.28;;;19.10;49.10;;;;;;4902303;29;20029;-78
2022/08/08 03:42:27;;;;;;;4.78;2.15;;;19.10;49.50;;;;;;4902684;29;20416;-77
2022/08/08 03:44:53;;;;;;;2.40;1.73;;;19.00;49.30;;;;;;4904779;29;20033;-78
2022/08/08 03:47:20;;;;;;;4.00;2.33;;;19.00;49.40;;;;;;4914383;29;20188;-77
2022/08/08 03:49:47;;;;;;;3.70;1.90;;;18.90;49.70;;;;;;4921242;29;20024;-77
2022/08/08 03:52:14;;;;;;;3.22;1.88;;;18.80;50.10;;;;;;4914402;29;20400;-77
2022/08/08 03:54:43;;;;;;;3.90;2.00;;;18.80;50.00;;;;;;4902336;29;20076;-77
2022/08/08 03:57:13;;;;;;;2.85;1.65;;;18.80;49.70;;;;;;4902022;29;20728;-77
2022/08/08 03:59:39;;;;;;;4.38;1.75;;;18.80;49.80;;;;;;4901715;29;20039;-77
2022/08/08 04:02:18;;;;;;;3.35;1.92;;;18.80;50.30;;;;;;4902005;29;20096;-78
2022/08/08 04:04:44;;;;;;;4.05;1.77;;;18.80;50.20;;;;;;4915508;29;20039;-78
2022/08/08 04:07:10;;;;;;;4.40;1.95;;;18.80;50.50;;;;;;4901872;29;20029;-80
2022/08/08 04:09:37;;;;;;;4.95;1.67;;;18.70;50.40;;;;;;4925151;29;20054;-78
2022/08/08 04:12:06;;;;;;;3.90;2.90;;;18.70;50.30;;;;;;4939834;29;20031;-77
2022/08/08 04:14:32;;;;;;;2.90;2.22;;;18.70;50.40;;;;;;4939384;29;20062;-78
2022/08/08 04:16:57;;;;;;;2.67;1.75;;;18.70;50.10;;;;;;4926253;29;20028;-78
2022/08/08 04:19:23;;;;;;;5.05;2.47;;;18.70;50.80;;;;;;4901834;29;20865;-77
2022/08/08 04:21:49;;;;;;;3.28;2.05;;;18.70;50.60;;;;;;4900647;29;20404;-80
2022/08/08 04:24:14;;;;;;;3.90;2.22;;;18.60;50.60;;;;;;4901762;29;20056;-78
2022/08/08 04:26:40;;;;;;;3.60;1.60;;;18.60;50.40;;;;;;4901473;29;20033;-77
2022/08/08 04:29:11;;;;;;;2.83;1.85;;;18.60;50.30;;;;;;4901741;29;20450;-78
2022/08/08 04:31:36;;;;;;;2.67;1.63;;;18.60;51.20;;;;;;4900985;29;20480;-78
2022/08/08 04:34:02;;;;;;;3.45;1.70;;;18.50;51.10;;;;;;4901392;29;20096;-78
2022/08/08 04:36:28;;;;;;;3.20;2.10;;;18.50;51.50;;;;;;4901523;29;20060;-78
2022/08/08 04:38:53;;;;;;;2.88;1.90;;;18.40;51.60;;;;;;4901699;29;20040;-78
2022/08/08 04:41:19;;;;;;;2.55;1.92;;;18.30;52.00;;;;;;4901571;29;20056;-78
2022/08/08 04:43:45;;;;;;;3.97;2.15;;;18.30;52.30;;;;;;4901301;29;20037;-80
2022/08/08 04:46:15;;;;;;;2.85;2.03;;;18.20;52.30;;;;;;4901405;29;20037;-83
2022/08/08 04:48:42;;;;;;;6.25;2.20;;;18.10;52.30;;;;;;4900352;29;20033;-83
2022/08/08 04:51:07;;;;;;;4.95;2.05;;;18.10;52.70;;;;;;4899679;29;20392;-85
2022/08/08 04:53:33;;;;;;;2.97;1.77;;;18.10;52.80;;;;;;4911294;29;20032;-83
2022/08/08 04:55:59;;;;;;;3.33;2.25;;;18.00;52.90;;;;;;4900946;29;20031;-85
2022/08/08 04:58:24;;;;;;;4.72;2.10;;;18.00;53.20;;;;;;4900843;29;20033;-82
2022/08/08 05:00:50;;;;;;;2.95;1.75;;;18.10;52.70;;;;;;4915650;29;20031;-83
2022/08/08 05:03:23;;;;;;;9.55;3.33;;;18.10;52.60;;;;;;4915648;29;20052;-82
2022/08/08 05:05:49;;;;;;;4.28;2.15;;;18.10;53.00;;;;;;4919712;29;20032;-83
2022/08/08 05:08:15;;;;;;;5.20;2.53;;;18.00;53.20;;;;;;4919047;29;20042;-83
2022/08/08 05:10:40;;;;;;;3.53;2.15;;;18.10;53.20;;;;;;4930675;29;20051;-85
2022/08/08 05:13:06;;;;;;;4.45;2.35;;;18.10;52.80;;;;;;4906941;29;20092;-82
2022/08/08 05:15:32;;;;;;;7.90;2.17;;;18.20;52.60;;;;;;4900843;29;20040;-86
2022/08/08 05:17:57;;;;;;;4.28;1.58;;;18.20;52.70;;;;;;4900651;29;20051;-89
2022/08/08 05:20:23;;;;;;;6.18;2.10;;;18.20;52.80;;;;;;4917721;29;20557;-87
2022/08/08 05:22:49;;;;;;;3.10;2.00;;;18.30;52.30;;;;;;4916630;29;20036;-88
2022/08/08 05:25:15;;;;;;;4.30;1.90;;;18.20;52.70;;;;;;4918727;29;20571;-87
2022/08/08 05:27:41;;;;;;;4.72;1.73;;;18.20;53.10;;;;;;4917882;29;20040;-87
2022/08/08 05:30:09;;;;;;;2.88;1.88;;;18.20;53.40;;;;;;4919608;29;20034;-87
2022/08/08 05:32:37;;;;;;;4.93;2.53;;;18.30;52.70;;;;;;4917010;29;20066;-87
2022/08/08 05:35:04;;;;;;;4.60;2.15;;;18.30;52.90;;;;;;4917928;29;20028;-86
2022/08/08 05:37:31;;;;;;;5.10;2.13;;;18.30;52.80;;;;;;4918427;29;20154;-86
2022/08/08 05:40:00;;;;;;;4.88;2.40;;;18.30;53.00;;;;;;4918448;29;20032;-88
2022/08/08 05:42:41;;;;;;;4.85;2.03;;;18.40;52.90;;;;;;4905787;29;20473;-83
2022/08/08 05:45:09;;;;;;;5.25;2.17;;;18.40;52.60;;;;;;4900281;29;20037;-85
2022/08/08 05:47:39;;;;;;;2.90;1.63;;;18.50;52.60;;;;;;4899626;29;20040;-85
2022/08/08 05:50:05;;;;;;;4.35;2.38;;;18.50;52.50;;;;;;4914647;29;20039;-85
2022/08/08 05:52:36;;;;;;;3.85;2.15;;;18.50;53.10;;;;;;4914724;29;20036;-85
2022/08/08 05:55:03;;;;;;;3.03;2.00;;;18.50;52.60;;;;;;4914712;29;20056;-83
2022/08/08 05:57:33;;;;;;;3.35;2.53;;;18.50;53.30;;;;;;4900866;29;20033;-84
2022/08/08 06:00:04;;;;;;;3.33;2.25;;;18.60;52.70;;;;;;4900195;29;20029;-81
2022/08/08 06:05:17;;;;;;;3.72;2.05;;;18.60;53.10;;;;;;4900201;29;20043;-83
2022/08/08 06:07:46;;;;;;;4.68;3.00;;;18.70;52.60;;;;;;4914893;29;20518;-84
2022/08/08 06:10:12;;;;;;;3.55;2.08;;;18.70;52.70;;;;;;4929209;29;20039;-83
2022/08/08 06:12:38;;;;;;;6.05;2.28;;;18.80;52.70;;;;;;4922858;29;20032;-84
2022/08/08 06:15:06;;;;;;;4.32;1.88;;;18.80;52.70;;;;;;4911625;29;20489;-84
2022/08/08 06:17:33;;;;;;;3.80;1.90;;;18.80;53.20;;;;;;4904231;29;20040;-84
2022/08/08 06:20:05;;;;;;;6.57;2.08;;;18.80;52.30;;;;;;4916813;29;20445;-84
2022/08/08 06:22:31;;;;;;;4.72;1.88;;;18.80;52.60;;;;;;4903701;29;20043;-84
2022/08/08 06:24:57;;;;;;;4.05;2.03;;;18.80;52.70;;;;;;4917942;29;20032;-84
2022/08/08 06:27:54;;;;;;;3.80;1.95;;;18.80;52.80;;;;;;4903492;29;20052;-84
2022/08/08 06:30:20;;;;;;;3.88;1.88;;;18.90;52.60;;;;;;4914013;29;20032;-84
2022/08/08 06:32:51;;;;;;;3.47;2.08;;;19.00;52.30;;;;;;4918085;29;20033;-84
2022/08/08 06:35:17;;;;;;;5.22;2.30;;;19.00;52.40;;;;;;4909471;29;20031;-84
2022/08/08 06:37:49;;;;;;;5.38;2.13;;;19.00;53.10;;;;;;4935511;29;20036;-85
2022/08/08 06:40:15;;;;;;;5.00;2.03;;;19.00;53.00;;;;;;4921292;29;20067;-84
2022/08/08 06:42:47;;;;;;;3.72;2.17;;;19.00;52.50;;;;;;4926125;29;20040;-84
2022/08/08 06:45:13;;;;;;;3.40;1.73;;;19.10;52.90;;;;;;4903213;29;20029;-83
2022/08/08 06:47:40;;;;;;;4.50;1.73;;;19.10;52.40;;;;;;4918934;29;20036;-83
2022/08/08 06:50:06;;;;;;;4.85;2.20;;;19.10;53.10;;;;;;4925415;29;20033;-83
2022/08/08 06:52:33;;;;;;;3.47;2.13;;;19.10;52.90;;;;;;4903479;29;20040;-83
2022/08/08 06:55:00;;;;;;;3.60;1.95;;;19.20;53.20;;;;;;4903142;29;20032;-83
2022/08/08 06:57:26;;;;;;;3.60;1.92;;;19.20;52.20;;;;;;4916146;29;20037;-83
2022/08/08 06:59:54;;;;;;;2.40;1.83;;;19.20;52.40;;;;;;4903260;29;20096;-83
2022/08/08 07:02:26;;;;;;;3.72;1.92;;;19.30;52.00;;;;;;4902480;29;20052;-84
2022/08/08 07:05:01;;;;;;;2.60;1.70;;;19.30;51.90;;;;;;4917507;29;20492;-84
2022/08/08 07:07:52;;;;;;;5.15;1.85;;;19.40;51.30;;;;;;4917330;29;20028;-84
2022/08/08 07:10:20;;;;;;;3.10;1.90;;;19.50;51.10;;;;;;4922762;29;20028;-84
2022/08/08 07:12:58;;;;;;;3.05;1.58;;;19.60;50.70;;;;;;4909799;29;20041;-84
2022/08/08 07:15:44;;;;;;;2.45;1.60;;;19.80;50.10;;;;;;4901593;29;20387;-84
2022/08/08 07:18:15;;;;;;;2.95;1.45;;;20.30;48.90;;;;;;4917265;29;20034;-84
2022/08/08 07:20:44;;;;;;;2.25;1.20;;;20.70;48.70;;;;;;4915752;29;20032;-84
2022/08/08 07:23:28;;;;;;;4.07;1.63;;;21.80;46.10;;;;;;4902942;29;20037;-86
2022/08/08 07:25:58;;;;;;;2.00;1.38;;;25.30;38.90;;;;;;4902295;29;20575;-86
2022/08/08 07:28:24;;;;;;;3.25;1.27;;;28.70;33.40;;;;;;4902490;29;20033;-86
2022/08/08 07:30:51;;;;;;;3.53;1.92;;;31.10;29.50;;;;;;4901495;29;20092;-86
2022/08/08 07:33:21;;;;;;;3.35;1.10;;;32.90;26.90;;;;;;4902439;29;20412;-86
2022/08/08 07:35:48;;;;;;;2.03;0.93;;;34.40;25.30;;;;;;4902579;29;20021;-86
2022/08/08 07:38:16;;;;;;;1.80;1.10;;;35.40;23.90;;;;;;4901384;29;20060;-86
2022/08/08 07:40:44;;;;;;;4.60;1.08;;;35.80;22.80;;;;;;4902713;29;20111;-86
2022/08/08 07:43:11;;;;;;;2.90;1.35;;;36.00;22.50;;;;;;4902478;29;20097;-86
2022/08/08 07:45:38;;;;;;;3.22;1.20;;;35.80;22.20;;;;;;4902155;29;20060;-86
2022/08/08 07:48:04;;;;;;;6.38;1.50;;;35.70;21.90;;;;;;4915751;29;20111;-85
2022/08/08 07:50:32;;;;;;;1.88;1.00;;;35.90;21.30;;;;;;4901493;29;20029;-83
2022/08/08 07:53:03;;;;;;;1.48;0.80;;;36.60;21.10;;;;;;4902593;29;20021;-84
2022/08/08 07:55:30;;;;;;;3.05;1.02;;;37.90;20.20;;;;;;4902305;29;20020;-84
2022/08/08 07:58:16;;;;;;;2.63;1.10;;;38.90;19.30;;;;;;4916744;29;20033;-84
2022/08/08 08:00:51;;;;;;;3.47;0.93;;;39.50;18.20;;;;;;4902025;29;20064;-83
2022/08/08 08:03:57;;;;;;;4.07;1.30;;;39.70;17.70;;;;;;4916637;29;20464;-84
2022/08/08 08:06:30;;;;;;;2.60;1.00;;;40.20;17.30;;;;;;4931542;29;20104;-83
2022/08/08 08:09:11;;;;;;;2.08;0.98;;;40.30;16.50;;;;;;4935246;29;20028;-83
2022/08/08 08:11:41;;;;;;;2.38;1.10;;;40.90;16.80;;;;;;4930741;29;20049;-83
2022/08/08 08:14:08;;;;;;;2.70;1.25;;;41.50;16.70;;;;;;4916448;29;20058;-83
2022/08/08 08:16:39;;;;;;;2.83;1.17;;;41.90;16.20;;;;;;4915361;29;20500;-84
2022/08/08 08:19:10;;;;;;;3.05;1.10;;;42.30;16.10;;;;;;4920708;29;20028;-83
2022/08/08 08:21:46;;;;;;;1.83;0.90;;;42.80;15.00;;;;;;4920506;29;20531;-83
2022/08/08 08:24:14;;;;;;;1.47;1.00;;;43.20;15.10;;;;;;4911421;29;20500;-83
2022/08/08 08:26:40;;;;;;;2.42;0.80;;;43.00;14.20;;;;;;4916243;29;20056;-83
2022/08/08 08:29:06;;;;;;;1.60;0.93;;;43.00;15.10;;;;;;4901217;29;20083;-84
2022/08/08 08:31:31;;;;;;;3.08;1.10;;;43.20;14.70;;;;;;4900599;29;20481;-83
2022/08/08 08:33:57;;;;;;;2.05;1.00;;;43.40;14.10;;;;;;4901578;29;20032;-83
2022/08/08 08:36:23;;;;;;;1.80;0.75;;;43.20;14.30;;;;;;4901377;29;20021;-83
2022/08/08 08:38:50;;;;;;;2.00;0.80;;;43.30;14.30;;;;;;4916063;29;20029;-83
2022/08/08 08:41:20;;;;;;;1.42;0.88;;;43.10;14.40;;;;;;4900996;29;20043;-84
2022/08/08 08:43:47;;;;;;;1.73;0.82;;;42.90;14.20;;;;;;4915955;29;20453;-84
2022/08/08 08:46:13;;;;;;;;;;;42.80;14.70;;;;;;4901108;29;20536;-84
2022/08/08 08:48:41;;;;;;;2.40;0.90;;;42.80;14.10;;;;;;4900763;29;19915;-83
2022/08/08 08:51:12;;;;;;;1.63;0.80;;;42.90;13.80;;;;;;4901230;29;20032;-84
2022/08/08 08:53:44;;;;;;;1.27;0.80;;;43.10;13.80;;;;;;4901089;29;20029;-84
2022/08/08 08:56:12;;;;;;;1.75;0.85;;;42.60;13.60;;;;;;4901147;29;20581;-84
2022/08/08 08:58:43;;;;;;;2.15;0.82;;;42.80;13.80;;;;;;4915840;29;20039;-84
2022/08/08 09:01:11;;;;;;;1.73;0.75;;;42.90;14.00;;;;;;4900561;29;20032;-83
2022/08/08 09:03:40;;;;;;;;;;;42.90;13.20;;;;;;4901151;29;20048;-85
2022/08/08 09:06:09;;;;;;;2.60;0.80;;;42.40;13.50;;;;;;4913543;29;19922;-84
2022/08/08 09:08:38;;;;;;;2.30;1.17;;;42.80;13.70;;;;;;4934308;29;20440;-84
2022/08/08 09:11:06;;;;;;;1.17;0.80;;;42.40;13.30;;;;;;4920630;29;20036;-84
2022/08/08 09:13:34;;;;;;;3.10;1.40;;;42.10;13.80;;;;;;4919838;29;20024;-83
2022/08/08 09:16:02;;;;;;;2.00;1.80;;;42.00;13.70;;;;;;4911796;29;20036;-84
2022/08/08 09:18:29;;;;;;;1.33;0.93;;;41.80;14.00;;;;;;4900609;29;20020;-83
2022/08/08 09:20:56;;;;;;;2.10;0.43;;;41.60;13.70;;;;;;4900334;29;20044;-84
2022/08/08 09:23:23;;;;;;;1.58;0.63;;;41.30;14.10;;;;;;4912067;29;20276;-83
2022/08/08 09:26:08;;;;;;;3.22;1.00;;;40.90;14.20;;;;;;4918756;29;20025;-84
2022/08/08 09:28:38;;;;;;;3.97;3.78;;;41.00;14.80;;;;;;4919454;29;20574;-83
2022/08/08 09:31:14;;;;;;;1.45;1.02;;;40.50;14.50;;;;;;4912437;29;20118;-84
2022/08/08 09:33:43;;;;;;;1.98;0.85;;;40.80;14.30;;;;;;4903388;29;20025;-84
2022/08/08 09:36:21;;;;;;;8.05;7.35;;;41.00;13.90;;;;;;4899437;29;20072;-83
2022/08/08 09:38:58;;;;;;;4.60;4.32;;;41.40;14.30;;;;;;4900082;29;20029;-83
2022/08/08 09:41:37;;;;;;;3.27;0.70;;;41.80;14.10;;;;;;4900400;29;20040;-84
2022/08/08 09:44:27;;;;;;;1.40;0.73;;;42.10;14.20;;;;;;4913526;29;20025;-84
2022/08/08 09:46:56;;;;;;;3.70;0.80;;;42.30;13.70;;;;;;4889932;29;20135;-84
2022/08/08 09:49:22;;;;;;;1.75;0.60;;;42.00;14.00;;;;;;4900463;29;20080;-84
2022/08/08 09:51:54;;;;;;;14.43;13.85;;;42.30;14.10;;;;;;4908746;29;20515;-83
2022/08/08 09:54:30;;;;;;;1.90;0.70;;;42.60;14.10;;;;;;4918989;29;20036;-82
2022/08/08 09:57:01;;;;;;;1.48;0.80;;;42.50;13.60;;;;;;4919028;29;20389;-84
2022/08/08 09:59:31;;;;;;;2.33;0.95;;;42.30;13.60;;;;;;4916240;29;20088;-84
2022/08/08 10:02:01;;;;;;;4.32;0.88;;;42.30;13.80;;;;;;4914571;29;20112;-84
2022/08/08 10:04:28;;;;;;;1.75;0.73;;;42.50;13.60;;;;;;4899731;29;20152;-84
2022/08/08 10:06:55;;;;;;;4.25;0.80;;;42.70;14.10;;;;;;4899980;29;20387;-83
2022/08/08 10:09:32;;;;;;;;;;;42.50;13.90;;;;;;4913500;29;20032;-84
2022/08/08 10:12:00;;;;;;;1.75;0.57;;;42.50;14.10;;;;;;4921726;29;19914;-84
2022/08/08 10:14:37;;;;;;;2.75;0.80;;;42.60;13.80;;;;;;4915825;29;20123;-84
2022/08/08 10:17:04;;;;;;;1.00;0.70;;;42.30;13.50;;;;;;4899789;29;20040;-84
2022/08/08 10:19:37;;;;;;;1.20;0.65;;;42.10;14.30;;;;;;4913549;29;20292;-83
2022/08/08 10:22:05;;;;;;;2.42;0.70;;;41.90;14.70;;;;;;4899277;29;20033;-83
2022/08/08 10:24:32;;;;;;;2.75;0.50;;;41.40;14.20;;;;;;4913601;29;20408;-83
2022/08/08 10:27:03;;;;;;;1.15;0.75;;;41.30;14.60;;;;;;4914257;29;20028;-83
2022/08/08 10:29:58;;;;;;;1.23;0.70;;;40.70;14.80;;;;;;4900180;29;20025;-82
2022/08/08 10:32:33;;;;;;;2.00;0.60;;;40.80;14.50;;;;;;4899609;29;20436;-84
2022/08/08 10:35:01;;;;;;;1.83;0.68;;;40.60;14.60;;;;;;4914252;29;20037;-83
2022/08/08 10:37:32;;;;;;;1.13;0.55;;;39.80;15.20;;;;;;4899188;29;20036;-83
2022/08/08 10:40:01;;;;;;;2.55;0.70;;;38.80;15.70;;;;;;4914178;29;20493;-83
2022/08/08 10:42:35;;;;;;;3.10;0.57;;;37.70;16.80;;;;;;4899727;29;20496;-84
2022/08/08 10:45:06;;;;;;;1.67;0.40;;;36.80;18.00;;;;;;4914609;29;20068;-83
2022/08/08 10:47:32;;;;;;;1.30;0.52;;;36.10;17.80;;;;;;4913729;29;20060;-88
2022/08/08 10:50:03;;;;;;;1.75;0.50;;;35.30;17.70;;;;;;4899856;29;20108;-82
2022/08/08 10:52:39;;;;;;;1.50;0.55;;;34.90;19.00;;;;;;4899618;29;20084;-85
2022/08/08 10:55:14;;;;;;;1.35;0.57;;;34.30;19.40;;;;;;4913942;29;20678;-83
2022/08/08 10:57:41;;;;;;;2.42;0.68;;;33.90;19.40;;;;;;4902732;29;20072;-80
2022/08/08 11:00:09;;;;;;;2.35;0.63;;;33.70;20.00;;;;;;4905511;29;20036;-80
2022/08/08 11:02:35;;;;;;;1.50;0.68;;;33.50;20.50;;;;;;4921974;29;20037;-79
2022/08/08 11:05:03;;;;;;;3.72;0.65;;;33.40;20.60;;;;;;4922166;29;20080;-80
2022/08/08 11:07:35;;;;;;;2.10;0.68;;;33.40;21.50;;;;;;4916519;29;20111;-80
2022/08/08 11:10:20;;;;;;;1.92;0.60;;;33.30;21.20;;;;;;4918788;29;20020;-80
2022/08/08 11:12:58;;;;;;;1.15;0.70;;;33.10;21.40;;;;;;4903040;29;20017;-80
2022/08/08 11:15:27;;;;;;;1.35;0.85;;;32.90;21.60;;;;;;4912343;29;20059;-80
2022/08/08 11:17:54;;;;;;;1.58;0.40;;;32.90;22.10;;;;;;4902832;29;20062;-79
2022/08/08 11:20:24;;;;;;;6.40;0.88;;;32.50;22.00;;;;;;4902818;29;20131;-81
2022/08/08 11:22:52;;;;;;;3.92;0.63;;;32.40;22.40;;;;;;4902923;29;20027;-79
2022/08/08 11:25:24;;;;;;;1.25;0.57;;;32.30;22.40;;;;;;4901697;29;20040;-79
2022/08/08 11:27:53;;;;;;;1.42;0.50;;;32.40;22.70;;;;;;4917020;29;20535;-79
2022/08/08 11:30:22;;;;;;;2.15;0.75;;;32.50;22.40;;;;;;4902843;29;20033;-80
2022/08/08 11:32:53;;;;;;;2.60;1.00;;;32.40;22.50;;;;;;4902801;29;20039;-81
2022/08/08 11:35:21;;;;;;;1.35;0.65;;;32.50;22.60;;;;;;4902056;29;20028;-78
2022/08/08 11:37:47;;;;;;;1.95;0.65;;;32.30;22.70;;;;;;4919911;29;20035;-77
2022/08/08 11:40:13;;;;;;;1.40;0.70;;;32.30;22.50;;;;;;4903524;29;20500;-78
2022/08/08 11:42:41;;;;;;;2.15;0.88;;;32.30;22.50;;;;;;4916479;29;20024;-78
2022/08/08 11:45:08;;;;;;;2.05;0.63;;;32.30;22.40;;;;;;4902504;29;20033;-78
2022/08/08 11:47:35;;;;;;;1.52;0.60;;;32.30;22.50;;;;;;4902145;29;20596;-77
2022/08/08 11:50:05;;;;;;;2.80;0.70;;;32.10;22.50;;;;;;4902651;29;20028;-78
2022/08/08 11:52:32;;;;;;;1.90;0.68;;;32.00;23.00;;;;;;4901318;29;20024;-77
2022/08/08 11:54:58;;;;;;;2.08;0.60;;;32.00;23.30;;;;;;4916891;29;20040;-78
2022/08/08 11:57:28;;;;;;;2.70;0.95;;;31.80;22.30;;;;;;4902132;29;20021;-77
2022/08/08 11:59:59;;;;;;;1.52;0.60;;;31.80;22.90;;;;;;4915372;29;20096;-78
2022/08/08 12:02:27;;;;;;;1.25;0.63;;;31.80;22.80;;;;;;4916030;29;20075;-77
2022/08/08 12:05:01;;;;;;;1.95;0.70;;;31.70;23.40;;;;;;4901903;29;20041;-78
2022/08/08 12:07:27;;;;;;;1.02;0.60;;;31.70;23.50;;;;;;4914818;29;20029;-77
2022/08/08 12:09:55;;;;;;;3.30;1.10;;;31.90;23.30;;;;;;4917052;29;20166;-77
2022/08/08 12:12:24;;;;;;;1.83;1.10;;;31.90;23.80;;;;;;4921939;29;20555;-77
2022/08/08 12:14:59;;;;;;;1.63;0.85;;;32.00;23.90;;;;;;4920803;29;20035;-77
2022/08/08 12:17:36;;;;;;;1.33;0.77;;;32.00;23.40;;;;;;4905057;29;20080;-80
2022/08/08 12:20:03;;;;;;;1.70;0.80;;;32.10;23.30;;;;;;4902063;29;20033;-80
2022/08/08 12:22:31;;;;;;;5.20;0.88;;;32.10;23.70;;;;;;4901476;29;20032;-80
2022/08/08 12:24:57;;;;;;;1.58;0.75;;;31.90;23.20;;;;;;4914996;29;20064;-79
2022/08/08 12:27:23;;;;;;;1.20;0.80;;;31.80;23.60;;;;;;4901029;29;20025;-80
2022/08/08 12:29:57;;;;;;;2.65;0.82;;;31.90;23.70;;;;;;4916356;29;20120;-80
2022/08/08 12:32:24;;;;;;;3.55;0.90;;;32.00;23.70;;;;;;4901553;29;20056;-80
2022/08/08 12:35:02;;;;;;;1.52;0.70;;;32.10;23.10;;;;;;4901478;29;20386;-80
2022/08/08 12:37:30;;;;;;;1.20;0.70;;;32.10;22.60;;;;;;4916272;29;20400;-80
2022/08/08 12:40:14;;;;;;;2.25;0.80;;;32.10;22.40;;;;;;4915787;29;20020;-80
2022/08/08 12:42:47;;;;;;;1.55;0.70;;;32.00;21.90;;;;;;4902855;29;20043;-80
2022/08/08 12:45:13;;;;;;;2.13;0.68;;;32.00;22.10;;;;;;4900961;29;20035;-80
2022/08/08 12:47:40;;;;;;;1.50;0.65;;;32.00;22.40;;;;;;4900227;29;20056;-80
2022/08/08 12:50:06;;;;;;;0.95;0.52;;;32.10;23.20;;;;;;4901363;29;20037;-80
2022/08/08 12:52:38;;;;;;;3.15;0.90;;;32.10;22.80;;;;;;4900674;29;20025;-80
2022/08/08 12:55:09;;;;;;;1.83;0.45;;;32.10;22.30;;;;;;4901018;29;20729;-81
2022/08/08 12:57:35;;;;;;;3.25;0.68;;;32.00;22.20;;;;;;4900673;29;20057;-80
2022/08/08 13:00:02;;;;;;;2.78;0.90;;;32.00;21.80;;;;;;4915232;29;20040;-81
2022/08/08 13:02:33;;;;;;;1.35;0.80;;;31.90;21.50;;;;;;4900621;29;20055;-80
2022/08/08 13:05:17;;;;;;;2.65;0.70;;;31.80;22.20;;;;;;4900605;29;20040;-81
2022/08/08 13:07:43;;;;;;;1.63;0.93;;;31.80;22.70;;;;;;4900427;29;20414;-80
2022/08/08 13:10:15;;;;;;;3.28;0.73;;;31.80;22.70;;;;;;4919538;29;20034;-81
2022/08/08 13:12:44;;;;;;;2.90;0.60;;;31.90;22.70;;;;;;4918431;29;20031;-81
2022/08/08 13:15:12;;;;;;;1.70;0.63;;;31.90;22.20;;;;;;4915773;29;20856;-81
2022/08/08 13:17:38;;;;;;;2.28;0.68;;;31.90;21.30;;;;;;4900556;29;20037;-81
2022/08/08 13:20:10;;;;;;;1.10;0.40;;;31.90;21.40;;;;;;4916160;29;20024;-81
2022/08/08 13:22:36;;;;;;;1.40;0.63;;;31.90;20.90;;;;;;4900504;29;20047;-80
2022/08/08 13:25:11;;;;;;;1.20;0.50;;;31.90;21.20;;;;;;4899663;29;20037;-81
2022/08/08 13:27:37;;;;;;;1.88;0.70;;;31.90;21.50;;;;;;4900375;29;20028;-81
2022/08/08 13:30:04;;;;;;;4.10;0.50;;;31.90;21.20;;;;;;4900591;29;20547;-81